createdAt,value
2022-10-14T00:00:35.914Z,17.62
2022-10-14T00:01:38.031Z,17.62
2022-10-14T00:02:40.233Z,17.66
2022-10-14T00:03:43.183Z,17.59
2022-10-14T00:04:45.715Z,17.63
2022-10-14T00:05:48.493Z,17.50
2022-10-14T00:06:50.623Z,17.57
2022-10-14T00:07:52.785Z,17.63
2022-10-14T00:08:55.985Z,17.79
2022-10-14T00:09:58.121Z,17.69
2022-10-14T00:11:08.233Z,17.74
2022-10-14T00:12:10.358Z,17.61
2022-10-14T00:13:12.603Z,17.67
2022-10-14T00:14:19.692Z,17.81
2022-10-14T00:15:24.793Z,17.54
2022-10-14T00:16:31.271Z,17.63
2022-10-14T00:17:33.504Z,17.52
2022-10-14T00:18:35.883Z,17.52
2022-10-14T00:19:38.060Z,17.35
2022-10-14T00:20:40.295Z,17.50
2022-10-14T00:21:44.532Z,17.71
2022-10-14T00:22:46.792Z,17.53
2022-10-14T00:23:49.256Z,17.57
2022-10-14T00:24:51.409Z,17.59
2022-10-14T00:25:53.901Z,17.58
2022-10-14T00:26:59.047Z,17.55
2022-10-14T00:28:03.540Z,17.55
2022-10-14T00:29:13.264Z,17.62
2022-10-14T00:30:15.781Z,17.46
2022-10-14T00:31:18.396Z,17.55
2022-10-14T00:32:22.695Z,17.57
2022-10-14T00:33:28.827Z,17.73
2022-10-14T00:34:36.803Z,17.60
2022-10-14T00:35:39.656Z,17.64
2022-10-14T00:36:42.619Z,17.70
2022-10-14T00:37:49.074Z,17.55
2022-10-14T00:38:52.789Z,17.80
2022-10-14T00:39:57.167Z,17.75
2022-10-14T00:41:00.319Z,17.77
2022-10-14T00:42:02.532Z,17.81
2022-10-14T00:43:04.661Z,17.80
2022-10-14T00:44:15.519Z,18.04
2022-10-14T00:45:23.898Z,18.00
2022-10-14T00:46:28.599Z,17.83
2022-10-14T00:47:36.368Z,17.69
2022-10-14T00:48:43.318Z,17.71
2022-10-14T00:49:45.434Z,17.72
2022-10-14T00:50:53.125Z,17.97
2022-10-14T00:52:05.699Z,18.10
2022-10-14T00:53:11.399Z,17.87
2022-10-14T00:54:17.595Z,18.01
2022-10-14T00:55:20.567Z,17.81
2022-10-14T00:56:27.229Z,18.02
2022-10-14T00:57:30.692Z,17.86
2022-10-14T00:58:32.935Z,17.79
2022-10-14T00:59:35.182Z,17.80
2022-10-14T01:00:39.216Z,17.90
2022-10-14T01:01:41.583Z,17.87
2022-10-14T01:02:43.799Z,17.87
2022-10-14T01:03:46.066Z,17.82
2022-10-14T01:04:49.599Z,17.86
2022-10-14T01:06:04.175Z,18.09
2022-10-14T01:07:30.505Z,18.10
2022-10-14T01:09:01.723Z,18.12
2022-10-14T01:10:14.105Z,18.24
2022-10-14T01:11:22.025Z,18.11
2022-10-14T01:12:33.590Z,18.17
2022-10-14T01:13:45.193Z,18.14
2022-10-14T01:15:35.508Z,18.20
2022-10-14T01:16:53.969Z,18.11
2022-10-14T01:18:22.495Z,18.08
2022-10-14T01:19:40.126Z,18.11
2022-10-14T01:21:12.913Z,18.09
2022-10-14T01:22:35.186Z,18.17
2022-10-14T01:24:05.270Z,17.77
2022-10-14T01:25:16.364Z,18.11
2022-10-14T01:26:59.712Z,18.10
2022-10-14T01:28:07.925Z,17.68
2022-10-14T01:29:40.512Z,18.04
2022-10-14T01:30:48.054Z,17.89
2022-10-14T01:32:16.429Z,18.09
2022-10-14T01:33:26.906Z,17.99
2022-10-14T01:34:37.793Z,17.95
2022-10-14T01:35:50.971Z,17.94
2022-10-14T01:37:01.262Z,17.97
2022-10-14T01:38:32.174Z,18.08
2022-10-14T01:39:42.655Z,17.77
2022-10-14T01:40:55.378Z,17.61
2022-10-14T01:42:03.798Z,17.88
2022-10-14T01:43:06.394Z,17.73
2022-10-14T01:44:11.026Z,17.87
2022-10-14T01:45:20.162Z,17.86
2022-10-14T01:46:25.607Z,17.84
2022-10-14T01:47:32.902Z,18.02
2022-10-14T01:48:38.962Z,18.02
2022-10-14T01:49:49.883Z,18.03
2022-10-14T01:50:53.772Z,18.17
2022-10-14T01:52:13.749Z,18.14
2022-10-14T01:53:25.017Z,18.10
2022-10-14T01:54:38.745Z,18.16
2022-10-14T01:55:44.395Z,18.09
2022-10-14T01:56:48.266Z,18.02
2022-10-14T01:57:53.661Z,18.05
2022-10-14T01:58:57.662Z,17.99
2022-10-14T02:00:01.326Z,17.95
2022-10-14T02:01:09.014Z,18.18
2022-10-14T02:02:14.218Z,18.17
2022-10-14T02:03:16.648Z,17.80
2022-10-14T02:04:21.575Z,17.93
2022-10-14T02:05:36.614Z,18.18
2022-10-14T02:06:43.319Z,18.10
2022-10-14T02:07:55.783Z,18.15
2022-10-14T02:09:12.681Z,18.22
2022-10-14T02:10:23.821Z,18.23
2022-10-14T02:11:27.670Z,18.02
2022-10-14T02:12:39.063Z,18.25
2022-10-14T02:13:56.361Z,18.24
2022-10-14T02:15:07.422Z,18.23
2022-10-14T02:16:43.346Z,18.29
2022-10-14T02:18:00.716Z,18.16
2022-10-14T02:19:08.338Z,18.08
2022-10-14T02:20:23.994Z,18.14
2022-10-14T02:21:36.463Z,18.20
2022-10-14T02:22:43.395Z,18.10
2022-10-14T02:24:02.329Z,18.09
2022-10-14T02:25:15.303Z,18.09
2022-10-14T02:26:18.731Z,17.85
2022-10-14T02:27:24.630Z,18.04
2022-10-14T02:28:29.622Z,18.05
2022-10-14T02:29:34.218Z,17.86
2022-10-14T02:30:41.968Z,18.08
2022-10-14T02:31:45.587Z,17.94
2022-10-14T02:32:50.702Z,17.82
2022-10-14T02:33:58.426Z,18.04
2022-10-14T02:35:01.924Z,17.88
2022-10-14T02:36:07.640Z,17.99
2022-10-14T02:37:13.040Z,18.01
2022-10-14T02:38:18.009Z,17.86
2022-10-14T02:39:32.815Z,18.07
2022-10-14T02:40:44.564Z,18.15
2022-10-14T02:41:46.963Z,17.84
2022-10-14T02:42:49.317Z,17.79
2022-10-14T02:43:51.773Z,17.82
2022-10-14T02:44:57.183Z,17.98
2022-10-14T02:46:02.874Z,17.96
2022-10-14T02:47:05.234Z,17.69
2022-10-14T02:48:07.662Z,17.75
2022-10-14T02:49:12.848Z,17.73
2022-10-14T02:50:15.060Z,17.75
2022-10-14T02:51:17.774Z,17.77
2022-10-14T02:52:20.462Z,17.77
2022-10-14T02:53:23.321Z,17.82
2022-10-14T02:54:25.544Z,17.81
2022-10-14T02:55:27.827Z,17.77
2022-10-14T02:56:30.107Z,17.77
2022-10-14T02:57:35.517Z,17.81
2022-10-14T02:58:37.614Z,17.77
2022-10-14T02:59:40.228Z,17.81
2022-10-14T03:00:42.537Z,17.83
2022-10-14T03:01:45.067Z,17.86
2022-10-14T03:02:48.458Z,17.87
2022-10-14T03:03:52.706Z,17.90
2022-10-14T03:04:54.842Z,17.63
2022-10-14T03:05:58.112Z,17.79
2022-10-14T03:07:01.527Z,17.80
2022-10-14T03:08:03.872Z,17.81
2022-10-14T03:09:08.236Z,17.74
2022-10-14T03:10:13.916Z,17.79
2022-10-14T03:11:16.479Z,17.80
2022-10-14T03:12:19.909Z,17.80
2022-10-14T03:13:23.477Z,17.65
2022-10-14T03:14:25.665Z,17.81
2022-10-14T03:15:28.815Z,17.81
2022-10-14T03:16:30.992Z,17.57
2022-10-14T03:17:33.894Z,17.68
2022-10-14T03:18:39.836Z,17.75
2022-10-14T03:19:52.405Z,17.71
2022-10-14T03:20:55.230Z,17.73
2022-10-14T03:22:03.453Z,17.76
2022-10-14T03:23:06.126Z,17.81
2022-10-14T03:24:11.067Z,17.72
2022-10-14T03:25:13.448Z,17.78
2022-10-14T03:26:34.105Z,17.66
2022-10-14T03:27:36.207Z,17.57
2022-10-14T03:28:43.358Z,17.33
2022-10-14T03:29:52.182Z,17.41
2022-10-14T03:30:58.361Z,17.57
2022-10-14T03:32:16.381Z,17.58
2022-10-14T03:33:37.261Z,17.65
2022-10-14T03:34:43.724Z,17.61
2022-10-14T03:35:50.729Z,17.63
2022-10-14T03:36:58.246Z,17.53
2022-10-14T03:38:03.320Z,17.55
2022-10-14T03:39:10.518Z,17.60
2022-10-14T03:40:22.888Z,17.59
2022-10-14T03:41:26.238Z,17.66
2022-10-14T03:42:28.502Z,17.65
2022-10-14T03:43:31.148Z,17.51
2022-10-14T03:44:34.470Z,17.65
2022-10-14T03:45:48.757Z,17.62
2022-10-14T03:46:54.019Z,17.66
2022-10-14T03:48:03.789Z,17.61
2022-10-14T03:49:06.125Z,17.62
2022-10-14T03:50:08.969Z,17.36
2022-10-14T03:51:22.227Z,17.48
2022-10-14T03:52:24.789Z,17.46
2022-10-14T03:53:37.458Z,17.60
2022-10-14T03:54:40.622Z,17.57
2022-10-14T03:55:43.120Z,17.53
2022-10-14T03:56:45.888Z,17.60
2022-10-14T03:57:49.137Z,17.52
2022-10-14T03:58:51.913Z,17.47
2022-10-14T03:59:54.598Z,17.56
2022-10-14T04:00:59.619Z,17.35
2022-10-14T04:02:10.156Z,17.50
2022-10-14T04:03:15.312Z,17.58
2022-10-14T04:04:19.026Z,17.52
2022-10-14T04:05:21.909Z,17.54
2022-10-14T04:06:25.163Z,17.64
2022-10-14T04:07:31.739Z,17.66
2022-10-14T04:08:35.103Z,17.61
2022-10-14T04:09:49.152Z,17.53
2022-10-14T04:10:55.230Z,17.75
2022-10-14T04:11:58.586Z,17.44
2022-10-14T04:13:21.688Z,17.46
2022-10-14T04:14:25.058Z,17.61
2022-10-14T04:15:27.798Z,17.63
2022-10-14T04:16:50.054Z,17.68
2022-10-14T04:17:52.949Z,17.49
2022-10-14T04:18:55.161Z,17.60
2022-10-14T04:19:58.141Z,17.65
2022-10-14T04:21:03.374Z,17.69
2022-10-14T04:22:06.453Z,17.59
2022-10-14T04:23:09.530Z,17.46
2022-10-14T04:24:15.374Z,17.62
2022-10-14T04:25:22.077Z,17.49
2022-10-14T04:26:28.603Z,17.55
2022-10-14T04:27:30.913Z,17.62
2022-10-14T04:28:39.062Z,17.69
2022-10-14T04:29:47.847Z,17.64
2022-10-14T04:30:57.188Z,17.46
2022-10-14T04:32:03.697Z,17.58
2022-10-14T04:33:06.238Z,17.62
2022-10-14T04:34:10.765Z,17.73
2022-10-14T04:35:14.977Z,17.64
2022-10-14T04:36:20.015Z,17.47
2022-10-14T04:37:22.207Z,17.29
2022-10-14T04:38:36.213Z,17.28
2022-10-14T04:39:41.814Z,17.38
2022-10-14T04:40:45.024Z,17.32
2022-10-14T04:41:47.302Z,17.46
2022-10-14T04:42:56.682Z,17.78
2022-10-14T04:44:03.447Z,17.39
2022-10-14T04:45:14.860Z,17.37
2022-10-14T04:46:21.870Z,17.44
2022-10-14T04:47:24.239Z,17.05
2022-10-14T04:48:30.995Z,17.07
2022-10-14T04:49:33.897Z,17.04
2022-10-14T04:50:52.498Z,17.30
2022-10-14T04:52:08.228Z,17.37
2022-10-14T04:53:34.376Z,17.43
2022-10-14T04:54:49.758Z,17.46
2022-10-14T04:55:56.097Z,17.56
2022-10-14T04:56:58.630Z,17.36
2022-10-14T04:58:00.953Z,17.37
2022-10-14T04:59:11.205Z,17.63
2022-10-14T05:00:48.511Z,17.56
2022-10-14T05:02:05.013Z,17.58
2022-10-14T05:03:15.424Z,17.62
2022-10-14T05:04:18.034Z,17.38
2022-10-14T05:05:24.761Z,17.41
2022-10-14T05:06:30.517Z,17.36
2022-10-14T05:07:33.214Z,17.37
2022-10-14T05:08:49.377Z,17.50
2022-10-14T05:09:56.221Z,17.45
2022-10-14T05:11:15.050Z,17.34
2022-10-14T05:12:25.229Z,16.76
2022-10-14T05:13:32.728Z,16.89
2022-10-14T05:14:39.039Z,16.86
2022-10-14T05:15:51.635Z,17.13
2022-10-14T05:16:54.259Z,17.12
2022-10-14T05:18:02.907Z,17.17
2022-10-14T05:19:23.413Z,17.33
2022-10-14T05:20:26.882Z,17.03
2022-10-14T05:21:31.594Z,17.31
2022-10-14T05:22:51.298Z,17.26
2022-10-14T05:23:53.787Z,17.36
2022-10-14T05:24:56.174Z,17.44
2022-10-14T05:25:58.413Z,17.49
2022-10-14T05:27:00.817Z,17.36
2022-10-14T05:28:05.632Z,17.08
2022-10-14T05:29:10.354Z,17.16
2022-10-14T05:30:13.954Z,17.24
2022-10-14T05:31:20.925Z,17.28
2022-10-14T05:32:38.407Z,17.26
2022-10-14T05:33:41.917Z,17.28
2022-10-14T05:34:44.217Z,17.38
2022-10-14T05:35:59.024Z,17.38
2022-10-14T05:37:03.877Z,17.46
2022-10-14T05:38:13.537Z,17.52
2022-10-14T05:39:17.896Z,17.38
2022-10-14T05:40:19.998Z,17.49
2022-10-14T05:41:22.719Z,17.42
2022-10-14T05:42:25.173Z,17.37
2022-10-14T05:43:32.735Z,17.28
2022-10-14T05:44:36.991Z,17.53
2022-10-14T05:45:39.966Z,17.52
2022-10-14T05:46:42.146Z,17.38
2022-10-14T05:47:44.688Z,17.47
2022-10-14T05:48:51.495Z,17.49
2022-10-14T05:49:53.657Z,17.44
2022-10-14T05:50:55.783Z,17.44
2022-10-14T05:52:00.046Z,17.53
2022-10-14T05:53:02.232Z,17.47
2022-10-14T05:54:12.746Z,17.53
2022-10-14T05:55:17.525Z,17.47
2022-10-14T05:56:20.984Z,17.55
2022-10-14T05:57:23.830Z,17.59
2022-10-14T05:58:25.959Z,17.55
2022-10-14T05:59:29.901Z,17.53
2022-10-14T06:00:32.973Z,17.60
2022-10-14T06:01:40.699Z,17.67
2022-10-14T06:02:42.847Z,17.61
2022-10-14T06:03:51.859Z,17.95
2022-10-14T06:04:54.029Z,17.70
2022-10-14T06:05:56.306Z,17.70
2022-10-14T06:06:59.103Z,17.80
2022-10-14T06:08:01.295Z,17.71
2022-10-14T06:09:06.612Z,17.67
2022-10-14T06:10:12.745Z,17.56
2022-10-14T06:11:15.018Z,17.59
2022-10-14T06:12:17.390Z,17.67
2022-10-14T06:13:20.630Z,17.64
2022-10-14T06:14:23.270Z,17.60
2022-10-14T06:15:28.304Z,17.53
2022-10-14T06:16:31.301Z,17.51
2022-10-14T06:17:33.939Z,17.55
2022-10-14T06:18:36.827Z,17.72
2022-10-14T06:19:39.494Z,17.63
2022-10-14T06:20:41.604Z,17.65
2022-10-14T06:21:44.801Z,17.59
2022-10-14T06:22:46.925Z,17.49
2022-10-14T06:23:49.167Z,17.61
2022-10-14T06:24:51.284Z,17.44
2022-10-14T06:25:53.671Z,17.38
2022-10-14T06:26:55.761Z,17.53
2022-10-14T06:28:05.480Z,17.90
2022-10-14T06:29:07.846Z,17.59
2022-10-14T06:30:10.930Z,17.58
2022-10-14T06:31:13.173Z,17.38
2022-10-14T06:32:15.281Z,17.47
2022-10-14T06:33:17.554Z,17.54
2022-10-14T06:34:23.021Z,17.57
2022-10-14T06:35:25.297Z,17.58
2022-10-14T06:36:27.466Z,17.45
2022-10-14T06:37:29.565Z,17.53
2022-10-14T06:38:31.737Z,17.60
2022-10-14T06:39:33.908Z,17.62
2022-10-14T06:40:36.850Z,17.60
2022-10-14T06:41:38.936Z,17.47
2022-10-14T06:42:41.976Z,17.52
2022-10-14T06:43:44.090Z,17.66
2022-10-14T06:44:46.182Z,17.73
2022-10-14T06:45:49.071Z,17.74
2022-10-14T06:46:51.186Z,17.62
2022-10-14T06:47:53.314Z,17.49
2022-10-14T06:48:55.433Z,17.62
2022-10-14T06:49:57.572Z,17.68
2022-10-14T06:51:01.405Z,17.87
2022-10-14T06:52:04.124Z,17.64
2022-10-14T06:53:06.414Z,17.51
2022-10-14T06:54:08.935Z,17.52
2022-10-14T06:55:11.303Z,17.49
2022-10-14T06:56:13.662Z,17.45
2022-10-14T06:57:16.111Z,17.59
2022-10-14T06:58:18.281Z,17.60
2022-10-14T06:59:20.703Z,17.54
2022-10-14T07:00:22.999Z,17.71
2022-10-14T07:01:25.160Z,17.53
2022-10-14T07:02:27.382Z,17.47
2022-10-14T07:03:29.585Z,17.62
2022-10-14T07:04:31.666Z,17.73
2022-10-14T07:05:33.874Z,17.66
2022-10-14T07:06:37.393Z,17.61
2022-10-14T07:07:39.711Z,17.59
2022-10-14T07:08:42.691Z,17.61
2022-10-14T07:09:44.803Z,17.76
2022-10-14T07:10:47.687Z,17.68
2022-10-14T07:11:49.818Z,17.64
2022-10-14T07:12:55.805Z,17.96
2022-10-14T07:13:58.004Z,17.81
2022-10-14T07:15:00.282Z,17.77
2022-10-14T07:16:03.158Z,17.81
2022-10-14T07:17:08.174Z,18.03
2022-10-14T07:18:10.262Z,17.77
2022-10-14T07:19:12.942Z,17.82
2022-10-14T07:20:15.218Z,17.84
2022-10-14T07:21:17.465Z,17.82
2022-10-14T07:22:19.953Z,17.95
2022-10-14T07:23:22.376Z,18.01
2022-10-14T07:24:24.573Z,18.28
2022-10-14T07:25:26.673Z,18.17
2022-10-14T07:26:32.052Z,18.61
2022-10-14T07:27:34.333Z,18.30
2022-10-14T07:28:36.860Z,18.07
2022-10-14T07:29:39.154Z,17.87
2022-10-14T07:30:41.358Z,17.85
2022-10-14T07:31:43.549Z,18.02
2022-10-14T07:32:45.928Z,18.07
2022-10-14T07:33:48.046Z,18.17
2022-10-14T07:34:51.720Z,18.42
2022-10-14T07:35:53.926Z,18.26
2022-10-14T07:36:56.034Z,18.01
2022-10-14T07:37:59.659Z,18.24
2022-10-14T07:39:02.172Z,17.90
2022-10-14T07:40:05.082Z,17.51
2022-10-14T07:41:16.699Z,17.75
2022-10-14T07:43:26.307Z,17.69
2022-10-14T07:44:28.483Z,17.73
2022-10-14T07:45:35.269Z,17.85
2022-10-14T07:46:40.434Z,18.14
2022-10-14T07:47:44.079Z,17.64
2022-10-14T07:48:56.697Z,17.96
2022-10-14T07:50:01.946Z,17.89
2022-10-14T07:51:04.191Z,18.06
2022-10-14T07:52:06.380Z,18.14
2022-10-14T07:53:08.571Z,18.14
2022-10-14T07:54:17.629Z,18.60
2022-10-14T07:55:19.729Z,18.27
2022-10-14T07:56:22.815Z,18.43
2022-10-14T07:57:25.476Z,18.52
2022-10-14T07:58:30.126Z,18.59
2022-10-14T07:59:32.273Z,18.38
2022-10-14T08:00:34.506Z,18.46
2022-10-14T08:01:37.353Z,18.50
2022-10-14T08:02:39.830Z,18.58
2022-10-14T08:03:43.467Z,18.83
2022-10-14T08:04:46.051Z,18.14
2022-10-14T08:05:50.189Z,18.01
2022-10-14T08:06:52.892Z,18.29
2022-10-14T08:07:55.055Z,18.34
2022-10-14T08:08:57.159Z,18.54
2022-10-14T08:09:59.354Z,18.80
2022-10-14T08:11:02.285Z,18.94
2022-10-14T08:12:04.542Z,19.84
2022-10-14T08:13:07.106Z,20.35
2022-10-14T08:14:09.349Z,20.21
2022-10-14T08:15:11.475Z,20.73
2022-10-14T08:16:25.521Z,21.64
2022-10-14T08:17:27.670Z,21.33
2022-10-14T08:18:30.135Z,21.72
2022-10-14T08:19:32.351Z,21.85
2022-10-14T08:20:35.076Z,22.20
2022-10-14T08:21:37.512Z,22.21
2022-10-14T08:22:39.696Z,21.89
2022-10-14T08:23:42.129Z,21.36
2022-10-14T08:24:44.495Z,20.77
2022-10-14T08:25:49.135Z,21.72
2022-10-14T08:26:56.957Z,21.87
2022-10-14T08:27:59.093Z,21.80
2022-10-14T08:29:04.483Z,21.91
2022-10-14T08:30:10.186Z,21.26
2022-10-14T08:31:13.131Z,21.66
2022-10-14T08:32:15.418Z,21.73
2022-10-14T08:33:17.542Z,21.03
2022-10-14T08:34:21.182Z,21.03
2022-10-14T08:35:23.416Z,20.97
2022-10-14T08:36:25.617Z,20.53
2022-10-14T08:37:27.749Z,20.55
2022-10-14T08:38:29.900Z,20.66
2022-10-14T08:39:32.112Z,20.43
2022-10-14T08:40:55.729Z,20.32
2022-10-14T08:42:07.630Z,19.77
2022-10-14T08:43:35.323Z,20.36
2022-10-14T08:44:47.414Z,20.09
2022-10-14T08:45:58.075Z,20.05
2022-10-14T08:47:03.231Z,20.23
2022-10-14T08:48:14.373Z,19.88
2022-10-14T08:49:28.644Z,19.58
2022-10-14T08:50:44.441Z,20.70
2022-10-14T08:51:51.735Z,21.09
2022-10-14T08:53:00.419Z,20.81
2022-10-14T08:54:11.081Z,21.43
2022-10-14T08:55:28.513Z,21.70
2022-10-14T08:56:30.702Z,21.62
2022-10-14T08:57:43.108Z,20.81
2022-10-14T08:58:54.518Z,21.03
2022-10-14T08:59:56.681Z,20.78
2022-10-14T09:01:04.485Z,21.03
2022-10-14T09:02:19.451Z,21.67
2022-10-14T09:03:27.065Z,21.74
2022-10-14T09:04:34.089Z,22.40
2022-10-14T09:05:39.515Z,22.64
2022-10-14T09:06:47.814Z,23.02
2022-10-14T09:07:52.249Z,23.10
2022-10-14T09:09:23.925Z,22.54
2022-10-14T09:10:37.587Z,22.33
2022-10-14T09:11:43.798Z,21.96
2022-10-14T09:12:46.025Z,21.81
2022-10-14T09:14:13.257Z,22.07
2022-10-14T09:15:30.690Z,22.05
2022-10-14T09:16:36.615Z,21.47
2022-10-14T09:17:46.121Z,21.60
2022-10-14T09:19:00.781Z,21.68
2022-10-14T09:20:05.269Z,21.54
2022-10-14T09:21:40.468Z,21.55
2022-10-14T09:23:02.406Z,21.55
2022-10-14T09:24:37.523Z,21.80
2022-10-14T09:25:43.926Z,20.83
2022-10-14T09:26:50.888Z,21.01
2022-10-14T09:27:53.230Z,21.00
2022-10-14T09:28:56.097Z,20.89
2022-10-14T09:30:04.876Z,21.48
2022-10-14T09:31:11.544Z,21.53
2022-10-14T09:32:37.118Z,21.89
2022-10-14T09:33:42.586Z,21.64
2022-10-14T09:34:48.328Z,21.91
2022-10-14T09:35:51.043Z,21.45
2022-10-14T09:36:53.747Z,22.05
2022-10-14T09:37:56.865Z,21.95
2022-10-14T09:39:03.639Z,21.28
2022-10-14T09:40:30.095Z,22.27
2022-10-14T09:41:32.465Z,22.40
2022-10-14T09:42:37.779Z,23.20
2022-10-14T09:44:21.493Z,22.97
2022-10-14T09:45:25.826Z,22.97
2022-10-14T09:46:28.054Z,22.53
2022-10-14T09:47:30.602Z,21.21
2022-10-14T09:48:48.008Z,21.70
2022-10-14T09:49:51.949Z,21.58
2022-10-14T09:50:57.408Z,21.73
2022-10-14T09:52:02.669Z,21.56
2022-10-14T09:53:14.273Z,21.89
2022-10-14T09:54:26.384Z,21.67
2022-10-14T09:55:28.770Z,21.81
2022-10-14T09:56:38.965Z,21.80
2022-10-14T09:57:44.544Z,21.87
2022-10-14T09:58:51.033Z,21.61
2022-10-14T10:00:01.805Z,22.09
2022-10-14T10:01:12.836Z,22.01
2022-10-14T10:02:32.264Z,22.09
2022-10-14T10:03:39.814Z,21.65
2022-10-14T10:04:47.339Z,21.64
2022-10-14T10:05:59.765Z,21.53
2022-10-14T10:07:05.899Z,21.26
2022-10-14T10:08:14.183Z,21.15
2022-10-14T10:09:19.431Z,21.06
2022-10-14T10:10:22.821Z,20.72
2022-10-14T10:11:37.331Z,21.04
2022-10-14T10:12:46.163Z,20.04
2022-10-14T10:13:48.291Z,20.46
2022-10-14T10:15:05.322Z,20.76
2022-10-14T10:16:19.640Z,20.88
2022-10-14T10:17:22.240Z,20.72
2022-10-14T10:18:24.594Z,20.67
2022-10-14T10:19:29.869Z,20.76
2022-10-14T10:20:33.308Z,20.66
2022-10-14T10:21:36.783Z,20.57
2022-10-14T10:22:39.913Z,20.73
2022-10-14T10:24:02.540Z,21.04
2022-10-14T10:25:05.921Z,20.76
2022-10-14T10:26:21.406Z,21.02
2022-10-14T10:27:27.459Z,20.88
2022-10-14T10:28:32.936Z,20.88
2022-10-14T10:29:35.374Z,21.08
2022-10-14T10:30:48.497Z,21.50
2022-10-14T10:32:16.976Z,21.92
2022-10-14T10:33:28.169Z,21.83
2022-10-14T10:34:53.305Z,22.16
2022-10-14T10:36:44.340Z,22.14
2022-10-14T10:38:01.147Z,21.99
2022-10-14T10:39:17.951Z,21.94
2022-10-14T10:40:30.169Z,22.01
2022-10-14T10:41:44.039Z,22.09
2022-10-14T10:43:11.771Z,21.96
2022-10-14T10:44:32.816Z,21.87
2022-10-14T10:46:08.327Z,21.41
2022-10-14T10:47:26.546Z,21.58
2022-10-14T10:48:39.943Z,21.65
2022-10-14T10:49:59.793Z,21.84
2022-10-14T10:51:28.611Z,21.29
2022-10-14T10:52:52.531Z,21.70
2022-10-14T10:54:08.134Z,21.26
2022-10-14T10:55:13.197Z,21.12
2022-10-14T10:56:22.466Z,21.35
2022-10-14T10:57:31.042Z,21.61
2022-10-14T10:58:52.253Z,21.64
2022-10-14T11:00:12.995Z,21.44
2022-10-14T11:01:32.259Z,21.74
2022-10-14T11:02:47.919Z,21.81
2022-10-14T11:04:25.941Z,22.15
2022-10-14T11:05:49.013Z,22.38
2022-10-14T11:07:28.025Z,22.12
2022-10-14T11:09:06.099Z,22.12
2022-10-14T11:10:56.133Z,21.89
2022-10-14T11:12:14.187Z,22.28
2022-10-14T11:13:45.198Z,22.09
2022-10-14T11:16:55.448Z,21.94
2022-10-14T11:18:03.018Z,21.54
2022-10-14T11:19:33.424Z,21.37
2022-10-14T11:20:54.100Z,20.91
2022-10-14T11:22:28.780Z,21.68
2022-10-14T11:23:34.779Z,21.61
2022-10-14T11:25:03.035Z,21.78
2022-10-14T11:26:18.540Z,21.68
2022-10-14T11:27:39.367Z,21.85
2022-10-14T11:28:51.193Z,21.83
2022-10-14T11:29:53.825Z,21.37
2022-10-14T11:30:59.041Z,21.54
2022-10-14T11:32:19.156Z,21.66
2022-10-14T11:34:00.098Z,21.63
2022-10-14T11:37:09.863Z,21.62
2022-10-14T11:38:18.705Z,21.07
2022-10-14T11:39:48.257Z,21.58
2022-10-14T11:40:58.063Z,21.53
2022-10-14T11:42:24.499Z,21.55
2022-10-14T11:43:44.053Z,21.44
2022-10-14T11:44:49.576Z,21.22
2022-10-14T11:46:03.584Z,21.64
2022-10-14T11:47:10.002Z,21.46
2022-10-14T11:48:39.823Z,21.65
2022-10-14T11:49:55.684Z,21.63
2022-10-14T11:51:23.299Z,21.69
2022-10-14T11:52:32.718Z,21.69
2022-10-14T11:54:11.297Z,21.97
2022-10-14T11:55:23.575Z,22.02
2022-10-14T11:56:25.750Z,21.85
2022-10-14T11:57:44.361Z,21.89
2022-10-14T11:58:47.824Z,21.82
2022-10-14T12:00:08.738Z,21.77
2022-10-14T12:01:35.664Z,21.91
2022-10-14T12:02:56.480Z,22.03
2022-10-14T12:04:10.800Z,22.22
2022-10-14T12:06:02.112Z,22.53
2022-10-14T12:07:12.675Z,22.71
2022-10-14T12:08:26.476Z,22.59
2022-10-14T12:09:42.310Z,23.02
2022-10-14T12:10:47.807Z,22.87
2022-10-14T12:11:54.073Z,23.20
2022-10-14T12:12:57.252Z,23.15
2022-10-14T12:14:05.377Z,23.50
2022-10-14T12:15:16.535Z,23.69
2022-10-14T12:16:22.392Z,23.76
2022-10-14T12:17:32.265Z,23.91
2022-10-14T12:19:43.210Z,23.61
2022-10-14T12:21:20.819Z,23.82
2022-10-14T12:22:26.941Z,23.30
2022-10-14T12:23:39.402Z,23.52
2022-10-14T12:24:50.509Z,23.52
2022-10-14T12:26:13.450Z,23.47
2022-10-14T12:27:16.776Z,23.18
2022-10-14T12:28:20.224Z,22.55
2022-10-14T12:29:31.093Z,22.89
2022-10-14T12:30:39.978Z,22.90
2022-10-14T12:31:47.766Z,22.40
2022-10-14T12:33:01.783Z,22.72
2022-10-14T12:34:15.559Z,22.75
2022-10-14T12:35:47.620Z,22.75
2022-10-14T12:36:52.621Z,22.24
2022-10-14T12:38:03.636Z,22.20
2022-10-14T12:39:18.038Z,22.13
2022-10-14T12:40:25.646Z,22.17
2022-10-14T12:41:40.620Z,22.11
2022-10-14T12:43:21.508Z,21.96
2022-10-14T12:44:34.211Z,22.00
2022-10-14T12:45:36.596Z,21.61
2022-10-14T12:46:44.441Z,21.79
2022-10-14T12:47:47.048Z,21.65
2022-10-14T12:48:54.813Z,21.66
2022-10-14T12:50:02.558Z,21.86
2022-10-14T12:51:12.033Z,21.89
2022-10-14T12:52:21.152Z,21.78
2022-10-14T12:53:30.653Z,21.60
2022-10-14T12:54:36.753Z,21.80
2022-10-14T12:55:50.067Z,21.77
2022-10-14T12:56:58.097Z,21.81
2022-10-14T12:58:02.878Z,21.65
2022-10-14T12:59:08.985Z,21.66
2022-10-14T13:00:21.708Z,21.89
2022-10-14T13:01:23.989Z,21.51
2022-10-14T13:02:37.337Z,21.39
2022-10-14T13:03:46.119Z,21.38
2022-10-14T13:04:51.926Z,21.46
2022-10-14T13:06:31.556Z,21.68
2022-10-14T13:08:20.971Z,21.72
2022-10-14T13:09:35.126Z,21.34
2022-10-14T13:10:50.310Z,21.42
2022-10-14T13:11:52.399Z,21.22
2022-10-14T13:12:54.676Z,21.30
2022-10-14T13:14:01.277Z,21.44
2022-10-14T13:15:49.381Z,21.75
2022-10-14T13:16:53.117Z,21.36
2022-10-14T13:17:56.165Z,21.39
2022-10-14T13:18:59.793Z,21.58
2022-10-14T13:20:04.468Z,21.29
2022-10-14T13:21:09.458Z,21.45
2022-10-14T13:22:33.254Z,21.92
2022-10-14T13:23:44.814Z,21.84
2022-10-14T13:24:47.040Z,21.52
2022-10-14T13:25:52.404Z,21.80
2022-10-14T13:26:55.782Z,21.68
2022-10-14T13:28:13.564Z,22.00
2022-10-14T13:29:30.204Z,22.17
2022-10-14T13:30:50.463Z,21.79
2022-10-14T13:32:01.354Z,22.23
2022-10-14T13:33:21.022Z,22.22
2022-10-14T13:34:41.130Z,22.25
2022-10-14T13:36:22.765Z,22.31
2022-10-14T13:37:33.583Z,22.31
2022-10-14T13:38:36.790Z,22.03
2022-10-14T13:39:38.898Z,21.79
2022-10-14T13:40:48.067Z,21.99
2022-10-14T13:41:50.477Z,21.97
2022-10-14T13:42:59.355Z,22.34
2022-10-14T13:44:02.556Z,21.98
2022-10-14T13:45:14.280Z,22.25
2022-10-14T13:46:22.676Z,22.42
2022-10-14T13:47:26.251Z,22.40
2022-10-14T13:48:32.739Z,22.60
2022-10-14T13:49:38.229Z,22.53
2022-10-14T13:50:41.935Z,22.52
2022-10-14T13:51:50.081Z,22.65
2022-10-14T13:52:57.105Z,22.75
2022-10-14T13:54:21.488Z,22.79
2022-10-14T13:55:24.791Z,22.37
2022-10-14T13:56:31.155Z,22.39
2022-10-14T13:57:53.967Z,22.29
2022-10-14T13:58:56.678Z,22.32
2022-10-14T14:01:39.105Z,22.43
2022-10-14T14:02:43.982Z,22.19
2022-10-14T14:03:57.572Z,22.17
2022-10-14T14:05:00.832Z,21.83
2022-10-14T14:06:16.478Z,21.88
2022-10-14T14:09:05.370Z,21.88
2022-10-14T14:10:09.689Z,21.75
2022-10-14T14:11:22.824Z,21.91
2022-10-14T14:12:25.143Z,21.63
2022-10-14T14:13:30.119Z,21.64
2022-10-14T14:14:37.106Z,21.66
2022-10-14T14:15:40.447Z,21.38
2022-10-14T14:17:04.743Z,21.18
2022-10-14T14:18:48.870Z,21.18
2022-10-14T14:19:57.310Z,20.75
2022-10-14T14:21:00.229Z,20.86
2022-10-14T14:22:20.830Z,21.04
2022-10-14T14:23:22.949Z,20.73
2022-10-14T14:24:25.664Z,20.74
2022-10-14T14:25:43.285Z,20.77
2022-10-14T14:26:48.763Z,20.93
2022-10-14T14:27:56.410Z,20.85
2022-10-14T14:28:58.665Z,20.60
2022-10-14T14:30:02.223Z,20.59
2022-10-14T14:31:04.441Z,20.58
2022-10-14T14:32:08.177Z,20.52
2022-10-14T14:33:15.644Z,20.80
2022-10-14T14:34:20.598Z,20.72
2022-10-14T14:35:23.166Z,20.57
2022-10-14T14:36:50.088Z,20.72
2022-10-14T14:37:56.162Z,20.48
2022-10-14T14:39:01.508Z,20.70
2022-10-14T14:40:05.470Z,20.52
2022-10-14T14:41:31.544Z,20.82
2022-10-14T14:42:39.581Z,20.72
2022-10-14T14:43:47.292Z,20.50
2022-10-14T14:45:01.186Z,20.67
2022-10-14T14:46:04.239Z,20.53
2022-10-14T14:47:07.299Z,20.27
2022-10-14T14:48:13.317Z,20.51
2022-10-14T14:49:19.567Z,20.34
2022-10-14T14:50:43.936Z,20.55
2022-10-14T14:51:46.545Z,20.20
2022-10-14T14:52:49.383Z,20.12
2022-10-14T14:53:53.978Z,20.13